sensor_id;sensor_type;location;lat;lon;timestamp;temperature;humidity
80192;SHT31;69513;51.990;5.704;2023-05-02T08:01:00;13.8;49.4
80192;SHT31;69513;51.990;5.704;2023-05-02T08:03:30;13.7;49.9
80192;SHT31;69513;51.990;5.704;2023-05-02T08:06:00;13.6;49.6
80192;SHT31;69513;51.990;5.704;2023-05-02T08:08:30;13.6;49.8
80192;SHT31;69513;51.990;5.704;2023-05-02T08:11:00;13.5;49.8
80192;SHT31;69513;51.990;5.704;2023-05-02T08:13:30;13.5;49.3
80192;SHT31;69513;51.990;5.704;2023-05-02T08:16:00;13.4;48.9
80192;SHT31;69513;51.990;5.704;2023-05-02T08:18:30;13.3;49.5
80192;SHT31;69513;51.990;5.704;2023-05-02T08:21:00;13.2;49.6
80192;SHT31;69513;51.990;5.704;2023-05-02T08:23:29;13.2;49.9
80192;SHT31;69513;51.990;5.704;2023-05-02T08:25:59;13.1;49.8
80192;SHT31;69513;51.990;5.704;2023-05-02T08:28:30;13.1;49.6
80192;SHT31;69513;51.990;5.704;2023-05-02T08:30:59;13.1;49.9
80192;SHT31;69513;51.990;5.704;2023-05-02T08:33:28;13.1;49.3
80192;SHT31;69513;51.990;5.704;2023-05-02T08:35:58;13.1;49.8
80192;SHT31;69513;51.990;5.704;2023-05-02T08:38:28;13.1;50.0
80192;SHT31;69513;51.990;5.704;2023-05-02T08:41:02;13.1;48.8
80192;SHT31;69513;51.990;5.704;2023-05-02T08:43:38;13.2;48.7
80192;SHT31;69513;51.990;5.704;2023-05-02T08:46:10;13.2;47.8
80192;SHT31;69513;51.990;5.704;2023-05-02T08:48:42;13.3;47.3
80192;SHT31;69513;51.990;5.704;2023-05-02T08:51:17;13.3;45.4
80192;SHT31;69513;51.990;5.704;2023-05-02T08:53:48;13.3;45.8
80192;SHT31;69513;51.990;5.704;2023-05-02T08:56:20;13.4;45.9
80192;SHT31;69513;51.990;5.704;2023-05-02T08:58:54;13.4;47.8
80192;SHT31;69513;51.990;5.704;2023-05-02T09:01:27;13.4;46.4
80192;SHT31;69513;51.990;5.704;2023-05-02T09:03:58;13.5;46.5
80192;SHT31;69513;51.990;5.704;2023-05-02T09:06:28;13.5;45.9
80192;SHT31;69513;51.990;5.704;2023-05-02T09:09:00;13.6;45.9
80192;SHT31;69513;51.990;5.704;2023-05-02T09:11:30;13.6;44.0
80192;SHT31;69513;51.990;5.704;2023-05-02T09:14:02;13.7;44.2
80192;SHT31;69513;51.990;5.704;2023-05-02T09:16:38;13.7;44.2
80192;SHT31;69513;51.990;5.704;2023-05-02T09:19:09;13.7;44.6
80192;SHT31;69513;51.990;5.704;2023-05-02T09:21:39;13.7;43.5
80192;SHT31;69513;51.990;5.704;2023-05-02T09:24:18;13.8;43.0
80192;SHT31;69513;51.990;5.704;2023-05-02T09:26:58;13.8;43.3
80192;SHT31;69513;51.990;5.704;2023-05-02T09:29:32;13.8;43.7
80192;SHT31;69513;51.990;5.704;2023-05-02T09:32:08;13.8;42.7
80192;SHT31;69513;51.990;5.704;2023-05-02T09:34:37;13.8;45.0
80192;SHT31;69513;51.990;5.704;2023-05-02T09:37:10;13.9;42.5
80192;SHT31;69513;51.990;5.704;2023-05-02T09:39:48;13.9;41.9
80192;SHT31;69513;51.990;5.704;2023-05-02T09:42:31;13.9;42.2
80192;SHT31;69513;51.990;5.704;2023-05-02T09:45:05;13.9;41.5
80192;SHT31;69513;51.990;5.704;2023-05-02T09:47:38;13.9;41.3
80192;SHT31;69513;51.990;5.704;2023-05-02T09:50:11;13.9;40.2
80192;SHT31;69513;51.990;5.704;2023-05-02T09:53:03;13.9;40.8
80192;SHT31;69513;51.990;5.704;2023-05-02T09:55:37;13.9;41.2
80192;SHT31;69513;51.990;5.704;2023-05-02T09:58:22;14.0;41.8
80192;SHT31;69513;51.990;5.704;2023-05-02T10:00:52;14.0;41.0
80192;SHT31;69513;51.990;5.704;2023-05-02T10:03:25;14.1;40.2
80192;SHT31;69513;51.990;5.704;2023-05-02T10:06:00;14.1;40.5
80192;SHT31;69513;51.990;5.704;2023-05-02T10:08:36;14.2;40.5
80192;SHT31;69513;51.990;5.704;2023-05-02T10:11:09;14.2;40.4
80192;SHT31;69513;51.990;5.704;2023-05-02T10:13:45;14.3;39.7
80192;SHT31;69513;51.990;5.704;2023-05-02T10:16:25;14.4;39.4
80192;SHT31;69513;51.990;5.704;2023-05-02T10:19:02;14.4;37.9
80192;SHT31;69513;51.990;5.704;2023-05-02T10:21:39;14.5;38.9
80192;SHT31;69513;51.990;5.704;2023-05-02T10:24:10;14.6;39.3
80192;SHT31;69513;51.990;5.704;2023-05-02T10:26:42;14.6;38.7
80192;SHT31;69513;51.990;5.704;2023-05-02T10:29:14;14.8;38.2
80192;SHT31;69513;51.990;5.704;2023-05-02T10:31:44;14.9;38.5
80192;SHT31;69513;51.990;5.704;2023-05-02T10:34:15;14.9;37.8
80192;SHT31;69513;51.990;5.704;2023-05-02T10:36:47;15.0;39.0
80192;SHT31;69513;51.990;5.704;2023-05-02T10:39:19;15.0;39.3
80192;SHT31;69513;51.990;5.704;2023-05-02T10:41:55;15.1;37.0
80192;SHT31;69513;51.990;5.704;2023-05-02T10:44:35;15.1;37.5
80192;SHT31;69513;51.990;5.704;2023-05-02T10:47:22;15.1;37.5
80192;SHT31;69513;51.990;5.704;2023-05-02T10:49:55;15.1;38.8
80192;SHT31;69513;51.990;5.704;2023-05-02T10:52:27;15.1;38.5
80192;SHT31;69513;51.990;5.704;2023-05-02T10:55:18;15.1;37.6
80192;SHT31;69513;51.990;5.704;2023-05-02T10:58:22;15.1;37.9
80192;SHT31;69513;51.990;5.704;2023-05-02T11:00:53;15.1;37.2
80192;SHT31;69513;51.990;5.704;2023-05-02T11:03:56;15.1;37.7
80192;SHT31;69513;51.990;5.704;2023-05-02T11:06:28;15.1;36.7
80192;SHT31;69513;51.990;5.704;2023-05-02T11:09:32;15.1;36.6
80192;SHT31;69513;51.990;5.704;2023-05-02T11:12:05;15.2;36.6
80192;SHT31;69513;51.990;5.704;2023-05-02T11:14:46;15.3;36.5
80192;SHT31;69513;51.990;5.704;2023-05-02T11:17:19;15.3;36.9
80192;SHT31;69513;51.990;5.704;2023-05-02T11:23:23;15.5;36.9
80192;SHT31;69513;51.990;5.704;2023-05-02T11:25:57;15.6;36.0
80192;SHT31;69513;51.990;5.704;2023-05-02T11:28:42;15.6;37.3
80192;SHT31;69513;51.990;5.704;2023-05-02T11:32:06;15.7;35.2
80192;SHT31;69513;51.990;5.704;2023-05-02T11:34:46;15.8;34.3
80192;SHT31;69513;51.990;5.704;2023-05-02T11:37:19;15.8;35.8
80192;SHT31;69513;51.990;5.704;2023-05-02T11:39:49;15.9;34.6
80192;SHT31;69513;51.990;5.704;2023-05-02T11:42:30;15.9;34.3
80192;SHT31;69513;51.990;5.704;2023-05-02T11:45:00;16.0;35.9
80192;SHT31;69513;51.990;5.704;2023-05-02T11:47:32;16.1;34.6
80192;SHT31;69513;51.990;5.704;2023-05-02T11:50:04;16.2;35.5
80192;SHT31;69513;51.990;5.704;2023-05-02T11:52:39;16.3;36.7
80192;SHT31;69513;51.990;5.704;2023-05-02T11:55:12;16.4;34.4
80192;SHT31;69513;51.990;5.704;2023-05-02T11:57:43;16.5;33.7
80192;SHT31;69513;51.990;5.704;2023-05-02T12:00:15;16.6;35.4
80192;SHT31;69513;51.990;5.704;2023-05-02T12:02:46;16.7;34.8
80192;SHT31;69513;51.990;5.704;2023-05-02T12:05:27;16.8;34.0
80192;SHT31;69513;51.990;5.704;2023-05-02T12:07:59;16.9;33.5
80192;SHT31;69513;51.990;5.704;2023-05-02T12:10:39;17.0;32.7
80192;SHT31;69513;51.990;5.704;2023-05-02T12:13:10;17.1;33.0
80192;SHT31;69513;51.990;5.704;2023-05-02T12:15:41;17.1;34.3
80192;SHT31;69513;51.990;5.704;2023-05-02T12:18:13;17.1;34.3
80192;SHT31;69513;51.990;5.704;2023-05-02T12:20:44;17.2;32.6
80192;SHT31;69513;51.990;5.704;2023-05-02T12:23:15;17.4;33.7
80192;SHT31;69513;51.990;5.704;2023-05-02T12:25:49;17.5;34.0
80192;SHT31;69513;51.990;5.704;2023-05-02T12:28:20;17.6;33.9
80192;SHT31;69513;51.990;5.704;2023-05-02T12:30:52;17.7;33.5
80192;SHT31;69513;51.990;5.704;2023-05-02T12:33:21;17.8;33.6
80192;SHT31;69513;51.990;5.704;2023-05-02T12:35:52;17.9;31.7
80192;SHT31;69513;51.990;5.704;2023-05-02T12:38:23;18.0;32.3
80192;SHT31;69513;51.990;5.704;2023-05-02T12:40:55;18.0;31.1
80192;SHT31;69513;51.990;5.704;2023-05-02T12:43:26;18.1;33.5
80192;SHT31;69513;51.990;5.704;2023-05-02T12:46:10;18.2;33.2
80192;SHT31;69513;51.990;5.704;2023-05-02T12:48:40;18.3;32.4
80192;SHT31;69513;51.990;5.704;2023-05-02T12:51:22;18.5;31.4
80192;SHT31;69513;51.990;5.704;2023-05-02T12:53:55;18.6;31.8
80192;SHT31;69513;51.990;5.704;2023-05-02T12:56:25;18.6;31.2
80192;SHT31;69513;51.990;5.704;2023-05-02T12:58:59;18.7;30.9
80192;SHT31;69513;51.990;5.704;2023-05-02T13:01:35;18.8;31.2
80192;SHT31;69513;51.990;5.704;2023-05-02T13:04:06;18.8;29.5
80192;SHT31;69513;51.990;5.704;2023-05-02T13:06:36;18.8;29.8
80192;SHT31;69513;51.990;5.704;2023-05-02T13:09:09;18.9;29.9
80192;SHT31;69513;51.990;5.704;2023-05-02T13:11:40;18.9;32.0
80192;SHT31;69513;51.990;5.704;2023-05-02T13:14:12;19.1;31.0
80192;SHT31;69513;51.990;5.704;2023-05-02T13:16:43;19.3;31.0
80192;SHT31;69513;51.990;5.704;2023-05-02T13:19:12;19.6;30.0
80192;SHT31;69513;51.990;5.704;2023-05-02T13:21:42;19.7;30.2
80192;SHT31;69513;51.990;5.704;2023-05-02T13:24:12;19.8;28.7
80192;SHT31;69513;51.990;5.704;2023-05-02T13:26:45;19.9;28.3
80192;SHT31;69513;51.990;5.704;2023-05-02T13:29:15;20.0;29.4
80192;SHT31;69513;51.990;5.704;2023-05-02T13:31:44;20.1;29.5
80192;SHT31;69513;51.990;5.704;2023-05-02T13:34:13;20.3;28.4
80192;SHT31;69513;51.990;5.704;2023-05-02T13:36:43;20.4;28.3
80192;SHT31;69513;51.990;5.704;2023-05-02T13:39:12;20.6;28.8
80192;SHT31;69513;51.990;5.704;2023-05-02T13:41:42;20.7;28.3
80192;SHT31;69513;51.990;5.704;2023-05-02T13:44:11;20.8;27.7
80192;SHT31;69513;51.990;5.704;2023-05-02T13:46:41;21.0;29.1
80192;SHT31;69513;51.990;5.704;2023-05-02T13:49:10;21.2;28.1
80192;SHT31;69513;51.990;5.704;2023-05-02T13:51:40;21.4;26.8
80192;SHT31;69513;51.990;5.704;2023-05-02T13:54:12;21.5;26.4
80192;SHT31;69513;51.990;5.704;2023-05-02T13:56:42;21.7;26.2
80192;SHT31;69513;51.990;5.704;2023-05-02T13:59:13;21.8;25.9
80192;SHT31;69513;51.990;5.704;2023-05-02T14:01:44;21.9;25.7
80192;SHT31;69513;51.990;5.704;2023-05-02T14:04:15;22.0;24.9
80192;SHT31;69513;51.990;5.704;2023-05-02T14:06:45;22.1;26.3
80192;SHT31;69513;51.990;5.704;2023-05-02T14:09:14;22.1;27.1
80192;SHT31;69513;51.990;5.704;2023-05-02T14:11:44;22.1;26.2
80192;SHT31;69513;51.990;5.704;2023-05-02T14:14:16;22.1;26.2
80192;SHT31;69513;51.990;5.704;2023-05-02T14:16:47;22.0;26.6
80192;SHT31;69513;51.990;5.704;2023-05-02T14:19:18;22.0;26.6
80192;SHT31;69513;51.990;5.704;2023-05-02T14:21:47;22.1;26.5
80192;SHT31;69513;51.990;5.704;2023-05-02T14:24:17;22.1;25.7
80192;SHT31;69513;51.990;5.704;2023-05-02T14:26:47;22.2;25.2
80192;SHT31;69513;51.990;5.704;2023-05-02T14:29:18;22.3;26.0
80192;SHT31;69513;51.990;5.704;2023-05-02T14:31:48;22.3;25.5
80192;SHT31;69513;51.990;5.704;2023-05-02T14:34:18;22.3;25.3
80192;SHT31;69513;51.990;5.704;2023-05-02T14:36:50;22.3;25.8
80192;SHT31;69513;51.990;5.704;2023-05-02T14:39:20;22.3;25.7
80192;SHT31;69513;51.990;5.704;2023-05-02T14:41:50;22.2;25.3
80192;SHT31;69513;51.990;5.704;2023-05-02T14:44:20;22.1;25.4
80192;SHT31;69513;51.990;5.704;2023-05-02T14:46:53;22.0;27.0
80192;SHT31;69513;51.990;5.704;2023-05-02T14:49:27;22.0;26.2
80192;SHT31;69513;51.990;5.704;2023-05-02T14:51:57;21.9;26.5
80192;SHT31;69513;51.990;5.704;2023-05-02T14:54:29;21.9;25.9
80192;SHT31;69513;51.990;5.704;2023-05-02T14:56:58;21.8;26.4
80192;SHT31;69513;51.990;5.704;2023-05-02T14:59:30;21.7;26.2
80192;SHT31;69513;51.990;5.704;2023-05-02T15:02:00;21.6;26.6
80192;SHT31;69513;51.990;5.704;2023-05-02T15:04:30;21.4;26.1
80192;SHT31;69513;51.990;5.704;2023-05-02T15:07:04;21.1;26.7
80192;SHT31;69513;51.990;5.704;2023-05-02T15:09:35;20.9;27.3
80192;SHT31;69513;51.990;5.704;2023-05-02T15:12:05;20.7;28.1
80192;SHT31;69513;51.990;5.704;2023-05-02T15:14:35;20.6;27.2
80192;SHT31;69513;51.990;5.704;2023-05-02T15:17:04;20.5;27.6
80192;SHT31;69513;51.990;5.704;2023-05-02T15:19:34;20.4;27.6
80192;SHT31;69513;51.990;5.704;2023-05-02T15:22:03;20.3;27.2
80192;SHT31;69513;51.990;5.704;2023-05-02T15:24:34;20.2;28.0
80192;SHT31;69513;51.990;5.704;2023-05-02T15:27:04;20.1;28.6
80192;SHT31;69513;51.990;5.704;2023-05-02T15:29:36;20.0;28.9
80192;SHT31;69513;51.990;5.704;2023-05-02T15:32:07;19.9;30.0
80192;SHT31;69513;51.990;5.704;2023-05-02T15:34:37;19.9;29.7
80192;SHT31;69513;51.990;5.704;2023-05-02T15:37:08;19.8;29.3
80192;SHT31;69513;51.990;5.704;2023-05-02T15:39:38;19.8;28.9
80192;SHT31;69513;51.990;5.704;2023-05-02T15:42:07;19.8;29.1
80192;SHT31;69513;51.990;5.704;2023-05-02T15:44:37;19.7;29.0
80192;SHT31;69513;51.990;5.704;2023-05-02T15:47:07;19.6;29.4
80192;SHT31;69513;51.990;5.704;2023-05-02T15:49:37;19.6;30.0
80192;SHT31;69513;51.990;5.704;2023-05-02T15:52:07;19.6;29.3
80192;SHT31;69513;51.990;5.704;2023-05-02T15:54:39;19.8;30.1
80192;SHT31;69513;51.990;5.704;2023-05-02T15:57:10;20.0;29.5
80192;SHT31;69513;51.990;5.704;2023-05-02T15:59:40;20.3;28.7
80192;SHT31;69513;51.990;5.704;2023-05-02T16:02:09;20.7;28.5
80192;SHT31;69513;51.990;5.704;2023-05-02T16:04:39;21.1;27.2
80192;SHT31;69513;51.990;5.704;2023-05-02T16:07:10;21.6;26.3
80192;SHT31;69513;51.990;5.704;2023-05-02T16:09:42;22.0;25.9
80192;SHT31;69513;51.990;5.704;2023-05-02T16:12:15;22.1;25.4
80192;SHT31;69513;51.990;5.704;2023-05-02T16:14:44;22.2;25.4
80192;SHT31;69513;51.990;5.704;2023-05-02T16:17:14;22.2;25.9
80192;SHT31;69513;51.990;5.704;2023-05-02T16:19:43;22.1;26.0
80192;SHT31;69513;51.990;5.704;2023-05-02T16:22:13;22.0;26.3
80192;SHT31;69513;51.990;5.704;2023-05-02T16:24:44;21.9;27.1
80192;SHT31;69513;51.990;5.704;2023-05-02T16:27:15;21.8;26.6
80192;SHT31;69513;51.990;5.704;2023-05-02T16:29:45;21.6;27.5
80192;SHT31;69513;51.990;5.704;2023-05-02T16:32:17;21.5;28.5
80192;SHT31;69513;51.990;5.704;2023-05-02T16:34:47;21.4;27.7
80192;SHT31;69513;51.990;5.704;2023-05-02T16:37:17;21.3;26.9
80192;SHT31;69513;51.990;5.704;2023-05-02T16:39:48;21.1;26.6
80192;SHT31;69513;51.990;5.704;2023-05-02T16:42:17;20.9;27.2
80192;SHT31;69513;51.990;5.704;2023-05-02T16:44:48;20.6;27.5
80192;SHT31;69513;51.990;5.704;2023-05-02T16:47:17;20.5;28.4
80192;SHT31;69513;51.990;5.704;2023-05-02T16:49:53;20.4;28.6
80192;SHT31;69513;51.990;5.704;2023-05-02T16:52:24;20.5;28.4
80192;SHT31;69513;51.990;5.704;2023-05-02T16:54:54;20.6;28.4
80192;SHT31;69513;51.990;5.704;2023-05-02T16:57:24;20.9;28.2
80192;SHT31;69513;51.990;5.704;2023-05-02T16:59:55;21.2;28.3
80192;SHT31;69513;51.990;5.704;2023-05-02T17:02:25;21.5;27.6
80192;SHT31;69513;51.990;5.704;2023-05-02T17:04:55;21.9;27.0
80192;SHT31;69513;51.990;5.704;2023-05-02T17:07:24;22.2;26.8
80192;SHT31;69513;51.990;5.704;2023-05-02T17:09:55;22.4;26.7
80192;SHT31;69513;51.990;5.704;2023-05-02T17:12:24;22.6;25.5
80192;SHT31;69513;51.990;5.704;2023-05-02T17:14:55;22.7;25.5
80192;SHT31;69513;51.990;5.704;2023-05-02T17:17:27;22.8;25.0
80192;SHT31;69513;51.990;5.704;2023-05-02T17:19:57;22.8;25.7
80192;SHT31;69513;51.990;5.704;2023-05-02T17:22:28;22.7;25.5
80192;SHT31;69513;51.990;5.704;2023-05-02T17:24:58;22.7;25.9
80192;SHT31;69513;51.990;5.704;2023-05-02T17:27:29;22.8;25.3
80192;SHT31;69513;51.990;5.704;2023-05-02T17:30:01;22.8;25.4
80192;SHT31;69513;51.990;5.704;2023-05-02T17:32:31;22.7;24.6
80192;SHT31;69513;51.990;5.704;2023-05-02T17:35:10;22.4;25.5
80192;SHT31;69513;51.990;5.704;2023-05-02T17:37:41;21.8;25.7
80192;SHT31;69513;51.990;5.704;2023-05-02T17:40:14;21.1;27.0
80192;SHT31;69513;51.990;5.704;2023-05-02T17:42:44;20.5;27.8
80192;SHT31;69513;51.990;5.704;2023-05-02T17:45:14;20.1;28.1
80192;SHT31;69513;51.990;5.704;2023-05-02T17:47:45;19.8;28.6
80192;SHT31;69513;51.990;5.704;2023-05-02T17:50:15;19.4;28.9
80192;SHT31;69513;51.990;5.704;2023-05-02T17:52:45;19.1;29.8
80192;SHT31;69513;51.990;5.704;2023-05-02T17:55:15;18.8;30.0
80192;SHT31;69513;51.990;5.704;2023-05-02T17:57:45;18.6;30.7
80192;SHT31;69513;51.990;5.704;2023-05-02T18:00:22;18.4;31.2
80192;SHT31;69513;51.990;5.704;2023-05-02T18:02:51;18.2;32.0
80192;SHT31;69513;51.990;5.704;2023-05-02T18:05:21;18.1;32.4
80192;SHT31;69513;51.990;5.704;2023-05-02T18:07:53;17.9;32.6
80192;SHT31;69513;51.990;5.704;2023-05-02T18:10:24;17.8;32.8
80192;SHT31;69513;51.990;5.704;2023-05-02T18:12:53;17.6;33.4
80192;SHT31;69513;51.990;5.704;2023-05-02T18:15:24;17.5;33.5
80192;SHT31;69513;51.990;5.704;2023-05-02T18:17:54;17.4;33.9
80192;SHT31;69513;51.990;5.704;2023-05-02T18:20:24;17.2;34.3
80192;SHT31;69513;51.990;5.704;2023-05-02T18:22:55;17.1;34.9
80192;SHT31;69513;51.990;5.704;2023-05-02T18:25:27;17.0;34.3
80192;SHT31;69513;51.990;5.704;2023-05-02T18:27:57;16.9;34.6
80192;SHT31;69513;51.990;5.704;2023-05-02T18:30:26;16.7;35.1
80192;SHT31;69513;51.990;5.704;2023-05-02T18:32:55;16.6;35.9
80192;SHT31;69513;51.990;5.704;2023-05-02T18:35:25;16.6;35.1
80192;SHT31;69513;51.990;5.704;2023-05-02T18:37:55;16.5;35.8
80192;SHT31;69513;51.990;5.704;2023-05-02T18:40:25;16.4;36.6
80192;SHT31;69513;51.990;5.704;2023-05-02T18:42:55;16.3;35.6
80192;SHT31;69513;51.990;5.704;2023-05-02T18:45:25;16.2;37.0
80192;SHT31;69513;51.990;5.704;2023-05-02T18:47:55;16.2;36.7
80192;SHT31;69513;51.990;5.704;2023-05-02T18:50:24;16.1;37.3
80192;SHT31;69513;51.990;5.704;2023-05-02T18:52:55;16.0;37.8
80192;SHT31;69513;51.990;5.704;2023-05-02T18:55:24;16.0;37.3
80192;SHT31;69513;51.990;5.704;2023-05-02T18:57:54;15.9;37.6
80192;SHT31;69513;51.990;5.704;2023-05-02T19:00:23;15.8;37.6
80192;SHT31;69513;51.990;5.704;2023-05-02T19:02:57;15.7;37.8
80192;SHT31;69513;51.990;5.704;2023-05-02T19:05:30;15.6;38.0
80192;SHT31;69513;51.990;5.704;2023-05-02T19:08:01;15.5;38.9
80192;SHT31;69513;51.990;5.704;2023-05-02T19:10:32;15.5;39.0
80192;SHT31;69513;51.990;5.704;2023-05-02T19:13:02;15.4;39.3
80192;SHT31;69513;51.990;5.704;2023-05-02T19:15:36;15.3;39.5
80192;SHT31;69513;51.990;5.704;2023-05-02T19:18:07;15.2;40.0
80192;SHT31;69513;51.990;5.704;2023-05-02T19:20:37;15.2;40.3
80192;SHT31;69513;51.990;5.704;2023-05-02T19:23:06;15.1;40.5
80192;SHT31;69513;51.990;5.704;2023-05-02T19:25:39;15.0;40.8
80192;SHT31;69513;51.990;5.704;2023-05-02T19:28:08;15.0;40.7
80192;SHT31;69513;51.990;5.704;2023-05-02T19:30:43;14.9;41.2
80192;SHT31;69513;51.990;5.704;2023-05-02T19:33:13;14.8;41.0
80192;SHT31;69513;51.990;5.704;2023-05-02T19:35:43;14.7;41.5
80192;SHT31;69513;51.990;5.704;2023-05-02T19:38:15;14.7;41.5
80192;SHT31;69513;51.990;5.704;2023-05-02T19:40:44;14.6;41.6
80192;SHT31;69513;51.990;5.704;2023-05-02T19:43:14;14.5;42.0
80192;SHT31;69513;51.990;5.704;2023-05-02T19:45:43;14.4;42.4
80192;SHT31;69513;51.990;5.704;2023-05-02T19:48:13;14.4;42.7
80192;SHT31;69513;51.990;5.704;2023-05-02T19:50:43;14.3;42.7
80192;SHT31;69513;51.990;5.704;2023-05-02T19:53:14;14.3;43.0
80192;SHT31;69513;51.990;5.704;2023-05-02T19:55:44;14.2;43.4
80192;SHT31;69513;51.990;5.704;2023-05-02T19:58:15;14.1;43.5
80192;SHT31;69513;51.990;5.704;2023-05-02T20:00:44;14.1;43.4
80192;SHT31;69513;51.990;5.704;2023-05-02T20:03:18;14.0;43.9
80192;SHT31;69513;51.990;5.704;2023-05-02T20:05:51;13.9;43.4
80192;SHT31;69513;51.990;5.704;2023-05-02T20:08:25;13.9;44.1
80192;SHT31;69513;51.990;5.704;2023-05-02T20:10:57;13.8;44.2
80192;SHT31;69513;51.990;5.704;2023-05-02T20:13:27;13.8;44.3
80192;SHT31;69513;51.990;5.704;2023-05-02T20:15:57;13.7;44.8
80192;SHT31;69513;51.990;5.704;2023-05-02T20:18:26;13.7;45.0
80192;SHT31;69513;51.990;5.704;2023-05-02T20:20:55;13.6;44.8
80192;SHT31;69513;51.990;5.704;2023-05-02T20:23:25;13.6;44.7
80192;SHT31;69513;51.990;5.704;2023-05-02T20:25:54;13.6;44.8
80192;SHT31;69513;51.990;5.704;2023-05-02T20:28:24;13.6;45.2
80192;SHT31;69513;51.990;5.704;2023-05-02T20:30:54;13.5;45.0
80192;SHT31;69513;51.990;5.704;2023-05-02T20:40:40;13.6;45.1
80192;SHT31;69513;51.990;5.704;2023-05-02T20:43:11;13.5;45.2
80192;SHT31;69513;51.990;5.704;2023-05-02T20:45:40;13.5;45.0
80192;SHT31;69513;51.990;5.704;2023-05-02T20:48:10;13.4;45.5
80192;SHT31;69513;51.990;5.704;2023-05-02T20:50:39;13.3;45.7
80192;SHT31;69513;51.990;5.704;2023-05-02T20:53:09;13.2;45.7
80192;SHT31;69513;51.990;5.704;2023-05-02T20:55:38;13.1;45.8
80192;SHT31;69513;51.990;5.704;2023-05-02T20:58:08;13.1;46.3
80192;SHT31;69513;51.990;5.704;2023-05-02T21:00:37;12.9;46.3
80192;SHT31;69513;51.990;5.704;2023-05-02T21:03:08;12.8;46.6
80192;SHT31;69513;51.990;5.704;2023-05-02T21:05:38;12.7;46.8
80192;SHT31;69513;51.990;5.704;2023-05-02T21:08:07;12.6;47.3
80192;SHT31;69513;51.990;5.704;2023-05-02T21:10:37;12.5;47.6
80192;SHT31;69513;51.990;5.704;2023-05-02T21:13:07;12.5;48.1
80192;SHT31;69513;51.990;5.704;2023-05-02T21:15:38;12.4;48.2
80192;SHT31;69513;51.990;5.704;2023-05-02T21:18:08;12.3;48.1
80192;SHT31;69513;51.990;5.704;2023-05-02T21:20:40;12.2;48.3
80192;SHT31;69513;51.990;5.704;2023-05-02T21:23:10;12.2;48.5
80192;SHT31;69513;51.990;5.704;2023-05-02T21:25:41;12.1;49.0
80192;SHT31;69513;51.990;5.704;2023-05-02T21:28:12;12.0;48.9
80192;SHT31;69513;51.990;5.704;2023-05-02T21:30:43;11.9;49.3
80192;SHT31;69513;51.990;5.704;2023-05-02T21:33:12;11.9;49.6
80192;SHT31;69513;51.990;5.704;2023-05-02T21:35:44;11.8;49.7
80192;SHT31;69513;51.990;5.704;2023-05-02T21:38:13;11.7;49.8
80192;SHT31;69513;51.990;5.704;2023-05-02T21:40:43;11.7;50.2
80192;SHT31;69513;51.990;5.704;2023-05-02T21:43:12;11.6;50.0
80192;SHT31;69513;51.990;5.704;2023-05-02T21:45:46;11.6;50.5
80192;SHT31;69513;51.990;5.704;2023-05-02T21:48:17;11.6;50.5
80192;SHT31;69513;51.990;5.704;2023-05-02T21:50:47;11.5;50.5
80192;SHT31;69513;51.990;5.704;2023-05-02T21:53:21;11.5;50.9
80192;SHT31;69513;51.990;5.704;2023-05-02T21:55:51;11.5;50.7
80192;SHT31;69513;51.990;5.704;2023-05-02T21:58:22;11.4;50.7
80192;SHT31;69513;51.990;5.704;2023-05-02T22:00:51;11.4;50.7
80192;SHT31;69513;51.990;5.704;2023-05-02T22:03:23;11.4;50.8
80192;SHT31;69513;51.990;5.704;2023-05-02T22:05:55;11.3;50.5
80192;SHT31;69513;51.990;5.704;2023-05-02T22:08:30;11.3;50.8
80192;SHT31;69513;51.990;5.704;2023-05-02T22:11:07;11.3;50.9
80192;SHT31;69513;51.990;5.704;2023-05-02T22:13:38;11.2;50.9
80192;SHT31;69513;51.990;5.704;2023-05-02T22:16:08;11.2;51.2
80192;SHT31;69513;51.990;5.704;2023-05-02T22:18:38;11.1;51.3
80192;SHT31;69513;51.990;5.704;2023-05-02T22:21:11;11.1;51.3
80192;SHT31;69513;51.990;5.704;2023-05-02T22:23:44;11.1;51.4
80192;SHT31;69513;51.990;5.704;2023-05-02T22:26:13;11.0;51.4
80192;SHT31;69513;51.990;5.704;2023-05-02T22:28:43;11.0;51.8
80192;SHT31;69513;51.990;5.704;2023-05-02T22:31:13;11.0;51.7
80192;SHT31;69513;51.990;5.704;2023-05-02T22:33:45;10.9;51.8
80192;SHT31;69513;51.990;5.704;2023-05-02T22:36:16;10.9;51.9
80192;SHT31;69513;51.990;5.704;2023-05-02T22:38:46;10.9;51.7
80192;SHT31;69513;51.990;5.704;2023-05-02T22:41:16;10.8;51.7
80192;SHT31;69513;51.990;5.704;2023-05-02T22:43:45;10.8;52.0
80192;SHT31;69513;51.990;5.704;2023-05-02T22:46:15;10.8;52.2
80192;SHT31;69513;51.990;5.704;2023-05-02T22:48:44;10.7;52.1
80192;SHT31;69513;51.990;5.704;2023-05-02T22:51:16;10.7;52.2
80192;SHT31;69513;51.990;5.704;2023-05-02T22:53:46;10.7;52.9
80192;SHT31;69513;51.990;5.704;2023-05-02T22:56:18;10.6;52.6
80192;SHT31;69513;51.990;5.704;2023-05-02T22:58:51;10.6;52.8
80192;SHT31;69513;51.990;5.704;2023-05-02T23:01:20;10.6;52.0
80192;SHT31;69513;51.990;5.704;2023-05-02T23:03:51;10.6;51.6
80192;SHT31;69513;51.990;5.704;2023-05-02T23:06:20;10.5;51.7
80192;SHT31;69513;51.990;5.704;2023-05-02T23:08:49;10.5;52.1
80192;SHT31;69513;51.990;5.704;2023-05-02T23:11:19;10.5;51.8
80192;SHT31;69513;51.990;5.704;2023-05-02T23:13:52;10.4;52.0
80192;SHT31;69513;51.990;5.704;2023-05-02T23:16:23;10.4;51.9
80192;SHT31;69513;51.990;5.704;2023-05-02T23:18:53;10.4;52.2
80192;SHT31;69513;51.990;5.704;2023-05-02T23:21:22;10.4;52.5
80192;SHT31;69513;51.990;5.704;2023-05-02T23:23:53;10.3;52.9
80192;SHT31;69513;51.990;5.704;2023-05-02T23:26:22;10.3;52.8
80192;SHT31;69513;51.990;5.704;2023-05-02T23:28:52;10.3;52.9
80192;SHT31;69513;51.990;5.704;2023-05-02T23:31:22;10.3;53.1
80192;SHT31;69513;51.990;5.704;2023-05-02T23:33:54;10.2;53.0
80192;SHT31;69513;51.990;5.704;2023-05-02T23:36:25;10.2;53.0
80192;SHT31;69513;51.990;5.704;2023-05-02T23:38:55;10.2;53.2
80192;SHT31;69513;51.990;5.704;2023-05-02T23:41:25;10.1;53.3
80192;SHT31;69513;51.990;5.704;2023-05-02T23:43:55;10.1;53.4
80192;SHT31;69513;51.990;5.704;2023-05-02T23:46:25;10.1;53.5
80192;SHT31;69513;51.990;5.704;2023-05-02T23:48:54;10.1;53.4
80192;SHT31;69513;51.990;5.704;2023-05-02T23:51:24;10.0;53.3
80192;SHT31;69513;51.990;5.704;2023-05-02T23:53:54;10.0;53.7
80192;SHT31;69513;51.990;5.704;2023-05-02T23:56:24;10.0;53.6
80192;SHT31;69513;51.990;5.704;2023-05-02T23:58:54;9.9;53.7
